createdAt,value
2019-05-03T00:02:26.894Z,100.00
2019-05-03T00:05:21.968Z,100.00
2019-05-03T00:07:56.054Z,100.00
2019-05-03T00:10:26.811Z,100.00
2019-05-03T00:12:57.861Z,100.00
2019-05-03T00:15:35.829Z,100.00
2019-05-03T00:18:06.658Z,100.00
2019-05-03T00:20:37.973Z,100.00
2019-05-03T00:23:08.726Z,100.00
2019-05-03T00:25:39.556Z,100.00
2019-05-03T00:28:10.315Z,100.00
2019-05-03T00:30:42.328Z,100.00
2019-05-03T00:33:13.593Z,100.00
2019-05-03T00:36:03.418Z,100.00
2019-05-03T00:38:35.886Z,100.00
2019-05-03T00:41:06.703Z,100.00
2019-05-03T00:43:37.571Z,100.00
2019-05-03T00:46:08.398Z,100.00
2019-05-03T00:48:39.399Z,100.00
2019-05-03T00:51:11.764Z,100.00
2019-05-03T00:53:42.592Z,100.00
2019-05-03T00:56:13.733Z,100.00
2019-05-03T00:58:52.942Z,100.00
2019-05-03T01:01:24.134Z,100.00
2019-05-03T01:03:55.419Z,100.00
2019-05-03T01:06:26.509Z,100.00
2019-05-03T01:08:57.392Z,100.00
2019-05-03T01:11:28.487Z,100.00
2019-05-03T01:13:59.274Z,100.00
2019-05-03T01:16:31.522Z,100.00
2019-05-03T01:19:03.345Z,100.00
2019-05-03T01:21:34.387Z,100.00
2019-05-03T01:24:05.510Z,100.00
2019-05-03T01:26:36.288Z,100.00
2019-05-03T01:29:07.623Z,100.00
2019-05-03T01:31:38.900Z,100.00
2019-05-03T01:34:09.926Z,100.00
2019-05-03T01:36:42.609Z,100.00
2019-05-03T01:39:14.421Z,100.00
2019-05-03T01:41:45.435Z,100.00
2019-05-03T01:44:16.222Z,100.00
2019-05-03T01:46:48.169Z,100.00
2019-05-03T01:49:27.892Z,100.00
2019-05-03T01:52:22.204Z,100.00
2019-05-03T01:54:53.481Z,100.00
2019-05-03T01:57:24.441Z,100.00
2019-05-03T01:59:55.229Z,100.00
2019-05-03T02:02:46.574Z,100.00
2019-05-03T02:05:34.483Z,100.00
2019-05-03T02:08:05.341Z,100.00
2019-05-03T02:10:36.817Z,100.00
2019-05-03T02:13:07.685Z,100.00
2019-05-03T02:15:38.875Z,100.00
2019-05-03T02:18:12.960Z,100.00
2019-05-03T02:20:42.152Z,100.00
2019-05-03T02:23:12.918Z,100.00
2019-05-03T02:25:55.572Z,100.00
2019-05-03T02:28:17.391Z,100.00
2019-05-03T02:30:48.147Z,100.00
2019-05-03T02:33:18.970Z,100.00
2019-05-03T02:35:49.957Z,100.00
2019-05-03T02:38:23.322Z,100.00
2019-05-03T02:40:53.838Z,100.00
2019-05-03T02:43:38.021Z,100.00
2019-05-03T02:46:28.077Z,100.00
2019-05-03T02:49:11.244Z,100.00
2019-05-03T02:51:42.475Z,100.00
2019-05-03T02:54:15.629Z,100.00
2019-05-03T02:56:47.678Z,100.00
2019-05-03T02:59:18.509Z,100.00
2019-05-03T03:01:49.329Z,100.00
2019-05-03T03:04:20.166Z,100.00
2019-05-03T03:06:55.468Z,100.00
2019-05-03T03:09:26.131Z,100.00
2019-05-03T03:11:58.725Z,100.00
2019-05-03T03:14:31.001Z,100.00
2019-05-03T03:17:06.427Z,100.00
2019-05-03T03:19:36.518Z,100.00
2019-05-03T03:22:10.767Z,100.00
2019-05-03T03:24:45.788Z,100.00
2019-05-03T03:27:20.099Z,100.00
2019-05-03T03:29:55.369Z,100.00
2019-05-03T03:32:37.807Z,100.00
2019-05-03T03:35:20.215Z,100.00
2019-05-03T03:37:46.533Z,100.00
2019-05-03T03:40:18.650Z,100.00
2019-05-03T03:42:49.885Z,100.00
2019-05-03T03:45:20.787Z,100.00
2019-05-03T03:47:56.351Z,100.00
2019-05-03T03:50:27.982Z,100.00
2019-05-03T03:52:59.586Z,100.00
2019-05-03T03:55:32.156Z,100.00
2019-05-03T03:58:06.200Z,100.00
2019-05-03T04:00:36.590Z,100.00
2019-05-03T04:03:07.505Z,100.00
2019-05-03T04:05:38.417Z,100.00
2019-05-03T04:08:09.238Z,100.00
2019-05-03T04:10:40.220Z,100.00
2019-05-03T04:13:15.730Z,100.00
2019-05-03T04:16:05.385Z,100.00
2019-05-03T04:18:49.503Z,100.00
2019-05-03T04:21:20.805Z,100.00
2019-05-03T04:23:51.899Z,100.00
2019-05-03T04:26:29.457Z,100.00
2019-05-03T04:28:56.724Z,100.00
2019-05-03T04:31:27.950Z,100.00
2019-05-03T04:33:58.954Z,100.00
2019-05-03T04:36:29.702Z,100.00
2019-05-03T04:39:00.701Z,100.00
2019-05-03T04:41:35.554Z,100.00
2019-05-03T04:44:06.459Z,100.00
2019-05-03T04:46:37.571Z,100.00
2019-05-03T04:49:08.320Z,100.00
2019-05-03T04:51:39.290Z,100.00
2019-05-03T04:54:37.868Z,100.00
2019-05-03T04:57:08.838Z,100.00
2019-05-03T04:59:39.920Z,100.00
2019-05-03T05:02:10.978Z,100.00
2019-05-03T05:04:41.737Z,100.00
2019-05-03T05:07:15.268Z,100.00
2019-05-03T05:09:45.548Z,100.00
2019-05-03T05:12:16.827Z,100.00
2019-05-03T05:14:47.890Z,100.00
2019-05-03T05:17:27.986Z,100.00
2019-05-03T05:20:08.514Z,100.00
2019-05-03T05:22:40.018Z,100.00
2019-05-03T05:25:14.928Z,100.00
2019-05-03T05:28:04.753Z,100.00
2019-05-03T05:30:35.565Z,100.00
2019-05-03T05:33:08.898Z,100.00
2019-05-03T05:35:40.318Z,100.00
2019-05-03T05:38:11.298Z,100.00
2019-05-03T05:40:42.052Z,100.00
2019-05-03T05:43:15.124Z,100.00
2019-05-03T05:45:46.083Z,100.00
2019-05-03T05:48:24.500Z,96.22
2019-05-03T05:50:55.328Z,99.86
2019-05-03T05:53:26.481Z,100.00
2019-05-03T05:56:22.323Z,98.75
2019-05-03T05:59:06.225Z,97.75
2019-05-03T06:01:48.313Z,94.84
2019-05-03T06:04:19.056Z,96.51
2019-05-03T06:07:15.077Z,96.89
2019-05-03T06:09:55.581Z,94.99
2019-05-03T06:12:32.945Z,97.45
2019-05-03T06:15:08.693Z,95.75
2019-05-03T06:17:50.532Z,96.90
2019-05-03T06:20:31.145Z,95.67
2019-05-03T06:23:09.158Z,93.94
2019-05-03T06:25:42.191Z,90.14
2019-05-03T06:28:20.984Z,92.24
2019-05-03T06:31:14.900Z,91.64
2019-05-03T06:33:46.704Z,90.05
2019-05-03T06:36:36.439Z,91.38
2019-05-03T06:39:26.338Z,92.86
2019-05-03T06:42:19.149Z,92.28
2019-05-03T06:45:10.210Z,89.46
2019-05-03T06:47:40.283Z,89.23
2019-05-03T06:50:14.342Z,89.97
2019-05-03T06:52:45.156Z,89.83
2019-05-03T06:55:15.989Z,89.67
2019-05-03T06:57:49.499Z,85.82
2019-05-03T07:00:30.682Z,86.67
2019-05-03T07:03:15.190Z,85.10
2019-05-03T07:06:34.521Z,84.57
2019-05-03T07:09:18.350Z,85.46
2019-05-03T07:11:50.078Z,81.80
2019-05-03T07:14:21.082Z,83.86
2019-05-03T07:16:51.873Z,80.04
2019-05-03T07:19:24.868Z,81.79
2019-05-03T07:21:55.555Z,83.03
2019-05-03T07:24:26.286Z,80.59
2019-05-03T07:26:59.104Z,80.59
2019-05-03T07:29:29.823Z,78.55
2019-05-03T07:32:02.433Z,77.58
2019-05-03T07:34:35.034Z,76.95
2019-05-03T07:37:06.105Z,75.87
2019-05-03T07:39:37.057Z,73.58
2019-05-03T07:42:07.822Z,74.98
2019-05-03T07:44:39.047Z,71.28
2019-05-03T07:47:10.034Z,75.43
2019-05-03T07:49:40.816Z,73.01
2019-05-03T07:52:12.051Z,73.01
2019-05-03T07:54:44.981Z,72.15
2019-05-03T07:57:28.118Z,74.64
2019-05-03T07:59:59.259Z,74.22
2019-05-03T08:02:29.992Z,76.81
2019-05-03T08:05:00.814Z,77.49
2019-05-03T08:07:31.652Z,80.85
2019-05-03T08:10:05.285Z,81.29
2019-05-03T08:12:35.560Z,81.69
2019-05-03T08:15:06.453Z,78.97
2019-05-03T08:17:37.702Z,80.47
2019-05-03T08:20:08.617Z,80.19
2019-05-03T08:22:39.786Z,80.20
2019-05-03T08:25:11.906Z,76.57
2019-05-03T08:27:44.559Z,77.73
2019-05-03T08:30:20.530Z,75.59
2019-05-03T08:33:05.525Z,75.77
2019-05-03T08:35:44.685Z,76.10
2019-05-03T08:38:15.373Z,76.72
2019-05-03T08:40:47.860Z,76.10
2019-05-03T08:43:18.891Z,76.37
2019-05-03T08:45:49.883Z,77.32
2019-05-03T08:48:20.646Z,76.48
2019-05-03T08:50:51.773Z,76.23
2019-05-03T08:53:25.424Z,75.87
2019-05-03T08:55:55.471Z,74.58
2019-05-03T08:58:26.241Z,73.87
2019-05-03T09:00:57.031Z,73.67
2019-05-03T09:03:28.542Z,72.69
2019-05-03T09:05:59.550Z,70.94
2019-05-03T09:08:30.846Z,70.45
2019-05-03T09:11:11.024Z,70.45
2019-05-03T09:13:55.875Z,67.99
2019-05-03T09:16:26.974Z,69.29
2019-05-03T09:18:57.804Z,70.66
2019-05-03T09:21:29.030Z,68.54
2019-05-03T09:23:59.845Z,66.66
2019-05-03T09:26:30.604Z,64.38
2019-05-03T09:29:01.344Z,66.84
2019-05-03T09:31:32.339Z,66.84
2019-05-03T09:34:07.491Z,68.11
2019-05-03T09:36:35.686Z,66.61
2019-05-03T09:39:07.685Z,66.61
2019-05-03T09:41:38.625Z,66.45
2019-05-03T09:44:09.638Z,65.84
2019-05-03T09:46:40.445Z,64.52
2019-05-03T09:49:14.459Z,64.60
2019-05-03T09:51:44.463Z,63.18
2019-05-03T09:54:29.672Z,63.56
2019-05-03T09:57:00.830Z,62.12
2019-05-03T09:59:32.101Z,60.50
2019-05-03T10:02:04.810Z,63.09
2019-05-03T10:04:36.655Z,60.82
2019-05-03T10:07:08.605Z,61.51
2019-05-03T10:09:39.974Z,61.51
2019-05-03T10:12:16.311Z,59.69
2019-05-03T10:14:47.642Z,60.37
2019-05-03T10:17:52.397Z,56.20
2019-05-03T10:20:25.677Z,57.83
2019-05-03T10:22:59.615Z,58.81
2019-05-03T10:25:30.905Z,56.84
2019-05-03T10:28:01.873Z,54.77
2019-05-03T10:30:32.606Z,54.71
2019-05-03T10:33:15.602Z,53.36
2019-05-03T10:35:47.599Z,53.84
2019-05-03T10:38:18.654Z,53.78
2019-05-03T10:40:50.600Z,53.60
2019-05-03T10:43:21.649Z,54.00
2019-05-03T10:45:52.626Z,52.68
2019-05-03T10:48:24.843Z,51.90
2019-05-03T10:50:56.429Z,52.76
2019-05-03T10:53:35.227Z,49.51
2019-05-03T10:56:23.366Z,50.55
2019-05-03T10:59:00.285Z,53.50
2019-05-03T11:01:49.121Z,50.04
2019-05-03T11:04:20.137Z,53.07
2019-05-03T11:06:51.153Z,50.16
2019-05-03T11:09:21.894Z,50.38
2019-05-03T11:11:55.316Z,48.90
2019-05-03T11:14:25.810Z,48.91
2019-05-03T11:16:57.084Z,48.93
2019-05-03T11:19:28.312Z,48.36
2019-05-03T11:21:59.040Z,48.06
2019-05-03T11:24:29.779Z,49.47
2019-05-03T11:27:02.839Z,47.13
2019-05-03T11:29:35.553Z,47.79
2019-05-03T11:32:40.416Z,48.04
2019-05-03T11:35:15.933Z,49.41
2019-05-03T11:37:56.599Z,51.09
2019-05-03T11:40:27.348Z,50.47
2019-05-03T11:42:59.983Z,49.34
2019-05-03T11:45:30.836Z,49.27
2019-05-03T11:48:01.819Z,48.45
2019-05-03T11:50:34.774Z,49.06
2019-05-03T11:53:05.681Z,49.98
2019-05-03T11:55:36.596Z,48.69
2019-05-03T11:58:18.535Z,47.04
2019-05-03T12:01:10.800Z,48.36
2019-05-03T12:03:35.567Z,49.49
2019-05-03T12:06:06.493Z,49.24
2019-05-03T12:08:37.246Z,49.64
2019-05-03T12:11:07.992Z,49.61
2019-05-03T12:13:38.713Z,47.93
2019-05-03T12:16:17.129Z,48.02
2019-05-03T12:18:50.116Z,47.56
2019-05-03T12:21:18.082Z,48.38
2019-05-03T12:23:48.727Z,49.79
2019-05-03T12:26:20.834Z,50.04
2019-05-03T12:28:52.350Z,49.60
2019-05-03T12:31:33.345Z,49.72
2019-05-03T12:33:55.604Z,51.22
2019-05-03T12:36:44.986Z,50.12
2019-05-03T12:39:26.283Z,51.84
2019-05-03T12:41:48.629Z,53.25
2019-05-03T12:44:19.363Z,51.53
2019-05-03T12:46:50.107Z,52.60
2019-05-03T12:49:20.843Z,50.38
2019-05-03T12:51:51.848Z,52.39
2019-05-03T12:54:24.284Z,51.54
2019-05-03T12:56:56.065Z,49.37
2019-05-03T12:59:45.206Z,49.34
2019-05-03T13:02:38.749Z,49.60
2019-05-03T13:05:09.559Z,48.53
2019-05-03T13:07:45.628Z,48.35
2019-05-03T13:10:21.708Z,45.56
2019-05-03T13:12:53.041Z,47.09
2019-05-03T13:15:21.542Z,48.40
2019-05-03T13:17:52.267Z,47.70
2019-05-03T13:20:25.046Z,48.90
2019-05-03T13:22:55.957Z,47.41
2019-05-03T13:25:27.898Z,46.75
2019-05-03T13:27:58.850Z,48.00
2019-05-03T13:30:29.581Z,48.10
2019-05-03T13:33:02.619Z,47.69
2019-05-03T13:35:39.660Z,47.47
2019-05-03T13:38:41.577Z,47.42
2019-05-03T13:41:31.039Z,47.21
2019-05-03T13:44:25.495Z,48.30
2019-05-03T13:47:07.843Z,47.85
2019-05-03T13:50:19.966Z,49.55
2019-05-03T13:52:51.300Z,46.34
2019-05-03T13:55:22.106Z,48.32
2019-05-03T13:57:54.779Z,47.64
2019-05-03T14:00:25.566Z,46.97
2019-05-03T14:02:56.564Z,46.37
2019-05-03T14:05:28.263Z,45.98
2019-05-03T14:07:59.399Z,46.50
2019-05-03T14:10:30.616Z,46.78
2019-05-03T14:13:01.812Z,47.84
2019-05-03T14:15:34.819Z,47.75
2019-05-03T14:18:06.158Z,48.43
2019-05-03T14:20:55.066Z,49.58
2019-05-03T14:23:26.109Z,50.06
2019-05-03T14:25:57.177Z,49.41
2019-05-03T14:28:27.964Z,50.26
2019-05-03T14:30:58.779Z,51.19
2019-05-03T14:33:29.860Z,52.75
2019-05-03T14:36:00.826Z,53.31
2019-05-03T14:38:31.812Z,54.79
2019-05-03T14:41:05.370Z,55.51
2019-05-03T14:43:35.615Z,56.96
2019-05-03T14:46:06.420Z,59.81
2019-05-03T14:48:37.234Z,59.43
2019-05-03T14:51:08.262Z,56.77
2019-05-03T14:53:39.730Z,55.88
2019-05-03T14:56:15.390Z,55.94
2019-05-03T14:59:08.635Z,55.30
2019-05-03T15:01:44.711Z,55.94
2019-05-03T15:04:15.430Z,55.55
2019-05-03T15:06:46.418Z,52.32
2019-05-03T15:09:19.128Z,54.40
2019-05-03T15:11:50.751Z,52.91
2019-05-03T15:14:21.538Z,53.28
2019-05-03T15:16:52.532Z,53.24
2019-05-03T15:19:25.233Z,52.71
2019-05-03T15:21:55.704Z,54.17
2019-05-03T15:24:26.415Z,55.18
2019-05-03T15:26:57.232Z,55.77
2019-05-03T15:29:28.182Z,54.34
2019-05-03T15:31:58.911Z,53.88
2019-05-03T15:34:29.865Z,54.50
2019-05-03T15:37:00.819Z,55.41
2019-05-03T15:39:31.641Z,53.98
2019-05-03T15:42:02.633Z,53.99
2019-05-03T15:44:58.284Z,55.80
2019-05-03T15:47:48.265Z,55.30
2019-05-03T15:52:50.738Z,55.02
2019-05-03T15:55:21.477Z,55.85
2019-05-03T15:57:52.456Z,55.06
2019-05-03T16:00:24.478Z,55.95
2019-05-03T16:03:07.455Z,56.08
2019-05-03T16:05:29.144Z,55.74
2019-05-03T16:08:00.609Z,54.52
2019-05-03T16:10:31.548Z,54.53
2019-05-03T16:13:02.548Z,54.86
2019-05-03T16:15:35.049Z,55.09
2019-05-03T16:18:05.950Z,54.56
2019-05-03T16:20:39.445Z,54.75
2019-05-03T16:23:09.655Z,54.60
2019-05-03T16:25:40.625Z,56.45
2019-05-03T16:28:16.580Z,55.96
2019-05-03T16:30:55.562Z,55.09
2019-05-03T16:33:28.204Z,56.17
2019-05-03T16:35:59.016Z,54.72
2019-05-03T16:38:29.822Z,55.09
2019-05-03T16:41:01.283Z,55.47
2019-05-03T16:43:34.880Z,55.33
2019-05-03T16:46:05.965Z,54.40
2019-05-03T16:48:36.825Z,56.27
2019-05-03T16:51:08.089Z,55.66
2019-05-03T16:53:38.901Z,56.62
2019-05-03T16:56:09.959Z,55.96
2019-05-03T16:58:40.929Z,56.55
2019-05-03T17:01:13.566Z,55.41
2019-05-03T17:03:48.868Z,56.43
2019-05-03T17:06:26.881Z,57.02
2019-05-03T17:09:18.118Z,58.71
2019-05-03T17:12:36.573Z,58.91
2019-05-03T17:15:38.111Z,58.18
2019-05-03T17:18:29.535Z,58.71
2019-05-03T17:21:25.464Z,57.10
2019-05-03T17:24:06.320Z,63.18
2019-05-03T17:26:46.811Z,62.33
2019-05-03T17:29:30.992Z,62.12
2019-05-03T17:32:44.562Z,61.89
2019-05-03T17:35:25.728Z,61.89
2019-05-03T17:38:26.623Z,65.89
2019-05-03T17:41:32.191Z,65.05
2019-05-03T17:44:20.567Z,65.47
2019-05-03T17:47:04.289Z,65.46
2019-05-03T17:49:54.635Z,61.43
2019-05-03T17:52:49.353Z,66.46
2019-05-03T17:55:39.795Z,68.66
2019-05-03T17:58:30.164Z,67.14
2019-05-03T18:04:37.870Z,69.03
2019-05-03T18:07:34.806Z,69.62
2019-05-03T18:10:10.645Z,71.61
2019-05-03T18:12:49.542Z,70.87
2019-05-03T18:15:35.748Z,72.79
2019-05-03T18:18:15.759Z,74.27
2019-05-03T18:20:58.772Z,72.26
2019-05-03T18:23:39.071Z,72.55
2019-05-03T18:26:16.870Z,74.84
2019-05-03T18:29:08.030Z,74.86
2019-05-03T18:31:59.980Z,76.86
2019-05-03T18:34:32.517Z,78.78
2019-05-03T18:37:04.804Z,79.17
2019-05-03T18:39:35.715Z,80.56
2019-05-03T18:42:08.364Z,80.25
2019-05-03T18:44:46.743Z,80.10
2019-05-03T18:47:20.733Z,80.65
2019-05-03T18:49:51.828Z,79.43
2019-05-03T18:52:23.156Z,78.81
2019-05-03T18:54:55.182Z,78.88
2019-05-03T18:57:26.024Z,80.97
2019-05-03T18:59:56.984Z,84.05
2019-05-03T19:02:27.981Z,84.43
2019-05-03T19:04:58.959Z,83.80
2019-05-03T19:07:52.066Z,84.78
2019-05-03T19:10:30.973Z,85.44
2019-05-03T19:13:05.965Z,83.86
2019-05-03T19:15:36.795Z,83.68
2019-05-03T19:18:12.510Z,85.00
2019-05-03T19:20:45.447Z,84.99
2019-05-03T19:23:15.943Z,85.39
2019-05-03T19:25:49.572Z,84.38
2019-05-03T19:28:19.427Z,84.30
2019-05-03T19:30:50.578Z,82.54
2019-05-03T19:33:21.325Z,82.84
2019-05-03T19:35:54.919Z,82.99
2019-05-03T19:38:25.767Z,85.02
2019-05-03T19:40:56.579Z,85.24
2019-05-03T19:43:27.321Z,86.56
2019-05-03T19:45:58.059Z,86.94
2019-05-03T19:48:29.067Z,87.11
2019-05-03T19:50:59.789Z,88.67
2019-05-03T19:53:49.789Z,88.27
2019-05-03T19:56:21.615Z,86.91
2019-05-03T19:58:56.103Z,87.50
2019-05-03T20:01:36.730Z,88.29
2019-05-03T20:04:34.825Z,87.94
2019-05-03T20:07:31.306Z,87.76
2019-05-03T20:10:02.330Z,88.31
2019-05-03T20:12:35.273Z,89.13
2019-05-03T20:15:06.221Z,89.69
2019-05-03T20:17:36.941Z,89.18
2019-05-03T20:20:07.770Z,89.32
2019-05-03T20:22:38.573Z,89.27
2019-05-03T20:25:09.306Z,90.09
2019-05-03T20:27:40.402Z,89.81
2019-05-03T20:30:11.310Z,89.92
2019-05-03T20:32:42.027Z,89.04
2019-05-03T20:35:18.721Z,89.46
2019-05-03T20:37:45.740Z,89.89
2019-05-03T20:40:17.028Z,89.64
2019-05-03T20:43:01.100Z,90.62
2019-05-03T20:45:49.404Z,90.76
2019-05-03T20:48:21.086Z,90.86
2019-05-03T20:50:51.822Z,91.51
2019-05-03T20:53:22.769Z,90.38
2019-05-03T20:55:54.613Z,89.43
2019-05-03T20:58:25.585Z,88.40
2019-05-03T21:00:56.383Z,88.65
2019-05-03T21:03:27.109Z,89.39
2019-05-03T21:05:57.923Z,90.59
2019-05-03T21:08:28.651Z,90.83
2019-05-03T21:10:59.616Z,92.51
2019-05-03T21:13:39.989Z,90.14
2019-05-03T21:16:14.765Z,91.21
2019-05-03T21:19:04.872Z,90.19
2019-05-03T21:21:42.112Z,92.05
2019-05-03T21:24:17.851Z,93.74
2019-05-03T21:26:48.849Z,92.45
2019-05-03T21:29:19.814Z,92.91
2019-05-03T21:31:50.549Z,92.82
2019-05-03T21:34:21.353Z,93.38
2019-05-03T21:36:52.091Z,93.25
2019-05-03T21:39:24.714Z,93.55
2019-05-03T21:41:55.829Z,93.67
2019-05-03T21:44:30.648Z,93.32
2019-05-03T21:47:12.939Z,91.50
2019-05-03T21:49:44.739Z,90.01
2019-05-03T21:52:15.721Z,89.92
2019-05-03T21:54:46.452Z,89.65
2019-05-03T21:57:17.268Z,89.40
2019-05-03T21:59:48.008Z,88.65
2019-05-03T22:02:18.895Z,89.15
2019-05-03T22:04:49.973Z,90.53
2019-05-03T22:07:20.937Z,91.35
2019-05-03T22:09:51.877Z,91.40
2019-05-03T22:12:24.822Z,91.97
2019-05-03T22:15:04.964Z,92.29
2019-05-03T22:17:53.959Z,92.17
2019-05-03T22:20:37.345Z,91.71
2019-05-03T22:23:15.303Z,90.18
2019-05-03T22:25:46.050Z,91.39
2019-05-03T22:28:17.439Z,90.80
2019-05-03T22:30:48.391Z,90.85
2019-05-03T22:33:19.106Z,91.05
2019-05-03T22:35:50.088Z,91.03
2019-05-03T22:38:21.103Z,91.36
2019-05-03T22:40:51.823Z,90.83
2019-05-03T22:43:22.771Z,91.46
2019-05-03T22:45:54.807Z,92.65
2019-05-03T22:48:25.852Z,92.72
2019-05-03T22:50:56.583Z,93.34
2019-05-03T22:53:27.546Z,93.98
2019-05-03T22:55:58.380Z,93.16
2019-05-03T22:58:29.129Z,93.33
2019-05-03T23:00:59.841Z,95.59
2019-05-03T23:03:32.926Z,95.83
2019-05-03T23:06:05.087Z,95.84
2019-05-03T23:08:35.824Z,95.59
2019-05-03T23:11:06.638Z,94.87
2019-05-03T23:13:37.583Z,94.52
2019-05-03T23:16:08.643Z,94.35
2019-05-03T23:18:39.602Z,94.61
2019-05-03T23:21:15.997Z,95.39
2019-05-03T23:23:54.855Z,93.37
2019-05-03T23:26:26.086Z,93.35
2019-05-03T23:28:57.110Z,93.37
2019-05-03T23:31:27.850Z,93.64
2019-05-03T23:33:59.289Z,93.04
2019-05-03T23:36:33.665Z,92.94
2019-05-03T23:39:05.266Z,93.44
2019-05-03T23:41:36.274Z,93.40
2019-05-03T23:44:07.222Z,93.00
2019-05-03T23:46:45.456Z,94.25
2019-05-03T23:49:16.574Z,93.88
2019-05-03T23:51:52.337Z,93.62
2019-05-03T23:54:24.704Z,93.31
2019-05-03T23:56:55.856Z,93.99
2019-05-03T23:59:27.070Z,94.94
